Time;durP1;ratioP1;P1;durP2;ratioP2;P2;SDS_P1;SDS_P2;PMS_P1;PMS_P2;Temp;Humidity;BMP_temperature;BMP_pressure;BME280_temperature;BME280_humidity;BME280_pressure;Samples;Min_cycle;Max_cycle;Signal;HPM_P1;HPM_P2
2024/03/11 00:00:38;;;;;;;21.23;17.73;;;9.10;99.90;;;;;;5073471;28;20214;-63
2024/03/11 00:03:07;;;;;;;25.00;18.17;;;9.10;99.90;;;;;;5072606;28;20256;-61
2024/03/11 00:05:35;;;;;;;27.00;18.17;;;9.10;99.90;;;;;;5073363;28;20251;-59
2024/03/11 00:08:02;;;;;;;27.38;18.17;;;9.10;99.90;;;;;;5072973;28;20243;-60
2024/03/11 00:10:31;;;;;;;23.90;17.27;;;9.00;99.90;;;;;;5072672;28;20201;-60
2024/03/11 00:12:57;;;;;;;23.00;18.13;;;9.10;99.90;;;;;;5072722;28;20252;-61
2024/03/11 00:15:24;;;;;;;25.42;17.65;;;9.10;99.90;;;;;;5073161;28;20227;-61
2024/03/11 00:17:51;;;;;;;29.05;19.73;;;9.10;99.90;;;;;;5072658;28;20590;-61
2024/03/11 00:20:20;;;;;;;26.52;17.38;;;9.10;99.90;;;;;;5072941;28;20247;-61
2024/03/11 00:22:48;;;;;;;26.20;17.58;;;9.00;99.90;;;;;;5073115;28;20553;-60
2024/03/11 00:25:15;;;;;;;24.00;16.80;;;9.00;99.90;;;;;;5073159;28;20228;-59
2024/03/11 00:27:43;;;;;;;26.30;17.92;;;9.00;99.90;;;;;;5072767;28;20204;-60
2024/03/11 00:30:12;;;;;;;27.65;18.70;;;9.00;99.90;;;;;;5076825;28;20204;-60
2024/03/11 00:32:44;;;;;;;25.98;16.75;;;9.00;99.90;;;;;;5076623;28;20227;-61
2024/03/11 00:35:11;;;;;;;23.70;17.48;;;9.00;99.90;;;;;;5076461;28;20185;-60
2024/03/11 00:37:38;;;;;;;22.50;17.02;;;9.00;99.90;;;;;;5076159;28;20721;-61
2024/03/11 00:40:07;;;;;;;24.77;17.80;;;9.00;99.90;;;;;;5077540;28;20215;-61
2024/03/11 00:42:34;;;;;;;27.80;19.30;;;9.00;99.90;;;;;;5078811;28;20225;-60
2024/03/11 00:45:02;;;;;;;25.25;18.30;;;9.00;99.90;;;;;;5080882;28;20278;-60
2024/03/11 00:47:29;;;;;;;25.48;17.00;;;9.00;99.90;;;;;;5078184;28;20197;-61
2024/03/11 00:49:56;;;;;;;25.15;17.35;;;9.00;99.90;;;;;;5076212;28;20204;-60
2024/03/11 00:52:24;;;;;;;24.75;17.23;;;9.00;99.90;;;;;;5076846;28;20251;-61
2024/03/11 00:54:52;;;;;;;26.23;18.15;;;9.00;99.90;;;;;;5077307;28;20647;-60
2024/03/11 00:57:19;;;;;;;21.27;17.30;;;9.00;99.90;;;;;;5077158;28;20250;-60
2024/03/11 00:59:46;;;;;;;26.70;16.52;;;8.90;99.90;;;;;;5076021;28;20201;-60
2024/03/11 01:02:14;;;;;;;28.63;16.35;;;8.90;99.90;;;;;;5075753;28;20254;-61
2024/03/11 01:04:42;;;;;;;25.55;16.90;;;8.90;99.90;;;;;;5076464;28;20207;-60
2024/03/11 01:07:09;;;;;;;26.10;18.13;;;8.90;99.90;;;;;;5076342;28;20205;-61
2024/03/11 01:09:36;;;;;;;26.42;17.95;;;8.90;99.90;;;;;;5076161;28;20207;-61
2024/03/11 01:12:02;;;;;;;25.73;17.55;;;8.90;99.90;;;;;;5076046;28;20224;-62
2024/03/11 01:14:30;;;;;;;25.90;18.80;;;8.90;99.90;;;;;;5075884;28;20573;-61
2024/03/11 01:16:56;;;;;;;27.95;19.05;;;8.90;99.90;;;;;;5075903;28;20597;-60
2024/03/11 01:19:27;;;;;;;21.20;16.25;;;8.90;99.90;;;;;;5075762;28;20217;-61
2024/03/11 01:21:55;;;;;;;24.23;17.80;;;8.90;99.90;;;;;;5076232;28;20221;-61
2024/03/11 01:24:22;;;;;;;23.02;16.42;;;8.90;99.90;;;;;;5075630;28;20258;-61
2024/03/11 01:26:48;;;;;;;26.83;18.08;;;8.90;99.90;;;;;;5075690;28;20239;-61
2024/03/11 01:29:15;;;;;;;23.02;16.38;;;8.90;99.90;;;;;;5075080;28;20205;-60
2024/03/11 01:31:43;;;;;;;23.60;18.55;;;8.90;99.90;;;;;;5075601;28;20274;-60
2024/03/11 01:34:10;;;;;;;23.33;16.77;;;8.90;99.90;;;;;;5075341;28;20648;-60
2024/03/11 01:36:39;;;;;;;26.05;17.58;;;8.80;99.90;;;;;;5075064;28;20696;-60
2024/03/11 01:39:08;;;;;;;25.33;17.95;;;8.80;99.90;;;;;;5075156;28;20221;-60
2024/03/11 01:41:36;;;;;;;22.73;16.90;;;8.80;99.90;;;;;;5074637;28;20308;-59
2024/03/11 01:44:03;;;;;;;23.45;18.00;;;8.80;99.90;;;;;;5075259;28;20207;-60
2024/03/11 01:46:30;;;;;;;23.77;18.58;;;8.80;99.90;;;;;;5075607;28;20201;-60
2024/03/11 01:48:59;;;;;;;24.35;17.33;;;8.80;99.90;;;;;;5077935;28;20197;-60
2024/03/11 01:51:26;;;;;;;24.50;17.00;;;8.80;99.90;;;;;;5077935;28;20252;-61
2024/03/11 01:53:54;;;;;;;24.27;18.20;;;8.80;99.90;;;;;;5076170;28;20207;-60
2024/03/11 01:56:22;;;;;;;25.25;18.63;;;8.80;99.90;;;;;;5075250;28;20292;-60
2024/03/11 01:58:50;;;;;;;27.00;18.67;;;8.70;99.90;;;;;;5075088;28;20626;-60
2024/03/11 02:01:17;;;;;;;24.55;16.70;;;8.70;99.90;;;;;;5076256;28;20593;-61
2024/03/11 02:03:44;;;;;;;25.88;17.38;;;8.70;99.90;;;;;;5075240;28;20575;-60
2024/03/11 02:06:11;;;;;;;24.42;17.60;;;8.70;99.90;;;;;;5075073;28;20205;-61
2024/03/11 02:08:38;;;;;;;24.15;16.55;;;8.70;99.90;;;;;;5075449;28;20247;-60
2024/03/11 02:11:07;;;;;;;26.35;18.77;;;8.70;99.90;;;;;;5075060;28;20225;-59
2024/03/11 02:13:34;;;;;;;27.30;16.92;;;8.70;99.90;;;;;;5074912;28;20582;-60
2024/03/11 02:16:01;;;;;;;25.50;16.27;;;8.60;99.90;;;;;;5074701;28;20201;-59
2024/03/11 02:18:27;;;;;;;26.65;18.52;;;8.60;99.90;;;;;;5074655;28;20221;-60
2024/03/11 02:20:56;;;;;;;25.65;17.10;;;8.60;99.90;;;;;;5074597;28;20203;-60
2024/03/11 02:23:24;;;;;;;28.20;18.83;;;8.60;99.90;;;;;;5074976;28;20208;-60
2024/03/11 02:25:55;;;;;;;26.98;17.50;;;8.60;99.90;;;;;;5074333;28;20200;-60
2024/03/11 02:28:22;;;;;;;24.85;17.40;;;8.60;99.90;;;;;;5074134;28;20533;-59
2024/03/11 02:30:49;;;;;;;24.77;16.45;;;8.50;99.90;;;;;;5074343;28;20205;-61
2024/03/11 02:33:16;;;;;;;22.20;17.85;;;8.50;99.90;;;;;;5078207;28;20201;-60
2024/03/11 02:35:42;;;;;;;25.15;18.77;;;8.50;99.90;;;;;;5076933;28;20201;-60
2024/03/11 02:38:09;;;;;;;28.13;18.98;;;8.50;99.90;;;;;;5073942;28;20224;-59
2024/03/11 02:40:39;;;;;;;24.00;17.08;;;8.50;99.90;;;;;;5073814;28;20674;-59
2024/03/11 02:43:06;;;;;;;24.20;17.30;;;8.50;99.90;;;;;;5073509;28;20221;-60
2024/03/11 02:45:34;;;;;;;25.30;17.65;;;8.40;99.90;;;;;;5073602;28;20678;-61
2024/03/11 02:48:01;;;;;;;25.00;17.50;;;8.40;99.90;;;;;;5073828;28;20239;-60
2024/03/11 02:50:28;;;;;;;25.00;18.08;;;8.40;99.90;;;;;;5073993;28;20232;-61
2024/03/11 02:52:55;;;;;;;27.75;17.15;;;8.40;99.90;;;;;;5072766;28;20225;-60
2024/03/11 02:55:22;;;;;;;24.30;17.58;;;8.40;99.90;;;;;;5073812;28;20209;-61
2024/03/11 02:57:51;;;;;;;24.17;18.75;;;8.40;99.90;;;;;;5073820;28;20208;-60
2024/03/11 03:00:18;;;;;;;26.63;18.88;;;8.40;99.90;;;;;;5073671;28;20227;-59
2024/03/11 03:02:46;;;;;;;29.05;17.77;;;8.40;99.90;;;;;;5074058;28;20279;-60
2024/03/11 03:05:13;;;;;;;25.27;17.98;;;8.30;99.90;;;;;;5073585;28;20209;-60
2024/03/11 03:07:39;;;;;;;23.05;15.73;;;8.30;99.90;;;;;;5073546;28;20627;-59
2024/03/11 03:10:07;;;;;;;25.70;18.02;;;8.30;99.90;;;;;;5073840;28;20650;-60
2024/03/11 03:12:35;;;;;;;27.52;18.58;;;8.30;99.90;;;;;;5073417;28;20710;-61
2024/03/11 03:15:04;;;;;;;32.88;18.10;;;8.30;99.90;;;;;;5073608;28;20247;-61
2024/03/11 03:17:30;;;;;;;22.88;16.73;;;8.30;99.90;;;;;;5073602;28;20201;-60
2024/03/11 03:19:57;;;;;;;22.83;17.70;;;8.20;99.90;;;;;;5073326;28;20224;-60
2024/03/11 03:22:24;;;;;;;27.58;18.25;;;8.20;99.90;;;;;;5073390;28;20220;-60
2024/03/11 03:24:51;;;;;;;27.73;18.90;;;8.20;99.90;;;;;;5073400;28;20208;-60
2024/03/11 03:27:18;;;;;;;25.63;18.05;;;8.20;99.90;;;;;;5073157;28;20217;-61
2024/03/11 03:29:45;;;;;;;25.25;17.55;;;8.20;99.90;;;;;;5073457;28;20201;-61
2024/03/11 03:32:14;;;;;;;24.27;17.13;;;8.20;99.90;;;;;;5073242;28;20260;-61
2024/03/11 03:34:40;;;;;;;20.85;16.02;;;8.20;99.90;;;;;;5073147;28;20233;-60
2024/03/11 03:37:07;;;;;;;26.90;18.85;;;8.20;99.90;;;;;;5073386;28;20585;-61
2024/03/11 03:39:34;;;;;;;24.60;17.77;;;8.10;99.90;;;;;;5073059;28;20217;-60
2024/03/11 03:42:01;;;;;;;25.00;18.45;;;8.10;99.90;;;;;;5073485;28;20216;-61
2024/03/11 03:44:28;;;;;;;26.23;18.50;;;8.10;99.90;;;;;;5073374;28;20208;-59
2024/03/11 03:46:55;;;;;;;25.65;18.17;;;8.10;99.90;;;;;;5072834;28;20201;-60
2024/03/11 03:49:23;;;;;;;24.27;17.35;;;8.10;99.90;;;;;;5073252;28;20201;-61
2024/03/11 03:51:50;;;;;;;20.48;16.63;;;8.10;99.90;;;;;;5074641;28;20225;-60
2024/03/11 03:54:17;;;;;;;30.35;18.08;;;8.10;99.90;;;;;;5074054;28;20201;-61
2024/03/11 03:56:45;;;;;;;25.00;17.67;;;8.10;99.90;;;;;;5073888;28;20232;-60
2024/03/11 03:59:12;;;;;;;23.65;17.85;;;8.10;99.90;;;;;;5074356;28;20272;-61
2024/03/11 04:01:39;;;;;;;22.95;16.88;;;8.00;99.90;;;;;;5073095;28;20233;-62
2024/03/11 04:04:06;;;;;;;26.27;17.42;;;8.10;99.90;;;;;;5073438;28;20223;-60
2024/03/11 04:06:34;;;;;;;22.42;16.70;;;8.10;99.90;;;;;;5073508;28;20242;-61
2024/03/11 04:09:00;;;;;;;25.17;17.05;;;8.00;99.90;;;;;;5073667;28;20228;-61
2024/03/11 04:13:21;;;;;;;23.15;18.17;;;8.00;99.90;;;;;;5169619;27;20559;-61
2024/03/11 04:15:49;;;;;;;23.50;17.45;;;8.00;99.90;;;;;;5153031;27;20302;-62
2024/03/11 04:18:16;;;;;;;28.40;19.20;;;8.10;99.90;;;;;;5153265;27;20209;-61
2024/03/11 04:20:43;;;;;;;24.17;18.85;;;8.10;99.90;;;;;;5162253;27;20281;-62
2024/03/11 04:23:12;;;;;;;24.52;17.73;;;8.00;99.90;;;;;;5166861;27;20205;-62
2024/03/11 04:25:38;;;;;;;26.73;18.10;;;8.00;99.90;;;;;;5154661;27;20194;-61
2024/03/11 04:28:06;;;;;;;22.70;18.13;;;8.00;99.90;;;;;;5152071;27;20208;-61
2024/03/11 04:30:37;;;;;;;22.05;18.63;;;8.00;99.90;;;;;;5151763;27;20202;-63
2024/03/11 04:33:04;;;;;;;27.85;18.50;;;8.00;99.90;;;;;;5151223;27;20696;-62
2024/03/11 04:35:32;;;;;;;25.98;17.92;;;8.00;99.90;;;;;;5151826;27;20195;-60
2024/03/11 04:38:00;;;;;;;27.73;17.13;;;8.00;99.90;;;;;;5151684;27;20202;-61
2024/03/11 04:40:28;;;;;;;24.67;18.35;;;8.00;99.90;;;;;;5151733;27;20201;-61
2024/03/11 04:42:56;;;;;;;25.90;17.95;;;8.00;99.90;;;;;;5151305;27;20578;-61
2024/03/11 04:45:23;;;;;;;25.77;17.52;;;8.00;99.90;;;;;;5151810;27;20210;-60
2024/03/11 04:47:52;;;;;;;30.40;19.13;;;8.00;99.90;;;;;;5151417;27;20209;-62
2024/03/11 04:50:24;;;;;;;28.05;19.73;;;8.00;99.90;;;;;;5151630;27;20293;-61
2024/03/11 04:52:51;;;;;;;23.85;16.70;;;8.00;99.90;;;;;;5151444;27;20218;-62
2024/03/11 04:55:18;;;;;;;28.25;19.05;;;8.10;99.90;;;;;;5151062;27;20215;-61
2024/03/11 04:57:45;;;;;;;25.00;18.30;;;8.10;99.90;;;;;;5151520;27;20589;-61
2024/03/11 05:00:13;;;;;;;32.40;16.67;;;8.10;99.90;;;;;;5150849;27;20203;-60
2024/03/11 05:02:40;;;;;;;28.00;19.15;;;8.10;99.90;;;;;;5151930;27;20233;-61
2024/03/11 05:05:09;;;;;;;30.80;19.85;;;8.00;99.90;;;;;;5151001;27;20676;-61
2024/03/11 05:07:36;;;;;;;27.33;17.83;;;8.00;99.90;;;;;;5151473;27;20282;-61
2024/03/11 05:10:04;;;;;;;25.67;17.25;;;8.00;99.90;;;;;;5152159;27;20205;-61
2024/03/11 05:12:31;;;;;;;27.98;19.40;;;8.00;99.90;;;;;;5151032;27;20226;-61
2024/03/11 05:14:59;;;;;;;24.20;17.10;;;8.00;99.90;;;;;;5151319;27;20590;-61
2024/03/11 05:17:25;;;;;;;29.88;18.60;;;8.00;99.90;;;;;;5151121;27;20199;-61
2024/03/11 05:19:52;;;;;;;27.90;19.33;;;7.90;99.90;;;;;;5151049;27;20302;-62
2024/03/11 05:22:23;;;;;;;28.23;18.75;;;7.90;99.90;;;;;;5152052;27;20562;-61
2024/03/11 05:24:50;;;;;;;33.15;19.88;;;7.90;99.90;;;;;;5141196;27;20244;-62
2024/03/11 05:27:17;;;;;;;25.88;17.40;;;7.90;99.90;;;;;;5137942;27;20207;-61
2024/03/11 05:29:44;;;;;;;27.02;18.48;;;7.90;99.90;;;;;;5139476;27;20207;-60
2024/03/11 05:32:11;;;;;;;26.27;18.58;;;7.90;99.90;;;;;;5142377;27;20226;-62
2024/03/11 05:34:38;;;;;;;26.98;19.25;;;7.90;99.90;;;;;;5143807;27;20203;-61
2024/03/11 05:37:06;;;;;;;27.60;18.70;;;7.90;99.90;;;;;;5144578;27;20203;-62
2024/03/11 05:39:34;;;;;;;24.10;17.73;;;7.90;99.90;;;;;;5145699;27;20683;-60
2024/03/11 05:42:05;;;;;;;29.65;19.45;;;7.90;99.90;;;;;;5138957;27;20569;-62
2024/03/11 05:44:32;;;;;;;26.35;17.48;;;7.90;99.90;;;;;;5136145;27;20195;-61
2024/03/11 05:46:59;;;;;;;23.70;16.85;;;7.90;99.90;;;;;;5136954;27;20195;-60
2024/03/11 05:49:28;;;;;;;24.45;17.73;;;7.90;99.90;;;;;;5137620;27;20202;-61
2024/03/11 05:51:55;;;;;;;25.35;17.65;;;7.90;99.90;;;;;;5137009;27;20223;-60
2024/03/11 05:54:24;;;;;;;22.80;18.25;;;7.90;99.90;;;;;;5137471;27;20207;-61
2024/03/11 05:56:56;;;;;;;27.90;18.13;;;8.00;99.90;;;;;;5140240;27;20206;-62
2024/03/11 05:59:23;;;;;;;27.73;18.70;;;8.00;99.90;;;;;;5138378;27;20263;-61
2024/03/11 06:01:50;;;;;;;27.02;20.08;;;8.00;99.90;;;;;;5139086;27;20215;-63
2024/03/11 06:04:18;;;;;;;25.10;17.30;;;8.00;99.90;;;;;;5138660;27;20199;-60
2024/03/11 06:06:45;;;;;;;25.60;17.40;;;8.00;99.90;;;;;;5137417;27;20286;-61
2024/03/11 06:09:14;;;;;;;27.90;18.25;;;8.00;99.90;;;;;;5145266;27;20232;-61
2024/03/11 06:11:41;;;;;;;28.33;18.60;;;8.00;99.90;;;;;;5142153;27;20223;-61
2024/03/11 06:14:12;;;;;;;26.02;18.10;;;8.00;99.90;;;;;;5139419;27;20251;-61
2024/03/11 06:16:38;;;;;;;22.35;17.13;;;8.10;99.90;;;;;;5136787;27;20290;-62
2024/03/11 06:19:06;;;;;;;27.67;17.10;;;8.10;99.90;;;;;;5136074;27;20203;-62
2024/03/11 06:21:33;;;;;;;23.92;17.80;;;8.10;99.90;;;;;;5135152;27;20223;-61
2024/03/11 06:24:00;;;;;;;25.70;18.15;;;8.10;99.90;;;;;;5135606;27;20248;-62
2024/03/11 06:26:27;;;;;;;25.15;17.80;;;8.10;99.90;;;;;;5135690;27;20210;-61
2024/03/11 06:28:55;;;;;;;24.55;17.55;;;8.20;99.90;;;;;;5135595;27;20251;-62
2024/03/11 06:31:24;;;;;;;24.20;17.40;;;8.20;99.90;;;;;;5135262;27;20749;-61
2024/03/11 06:33:52;;;;;;;27.77;18.42;;;8.20;99.90;;;;;;5135410;27;20725;-61
2024/03/11 06:36:18;;;;;;;26.27;19.27;;;8.20;99.90;;;;;;5134792;27;20253;-61
2024/03/11 06:38:48;;;;;;;21.95;17.75;;;8.20;99.90;;;;;;5135493;27;20206;-61
2024/03/11 06:41:14;;;;;;;25.52;17.98;;;8.30;99.90;;;;;;5135186;27;20227;-62
2024/03/11 06:43:41;;;;;;;23.05;17.73;;;8.30;99.90;;;;;;5135961;27;20565;-60
2024/03/11 06:46:08;;;;;;;29.33;18.65;;;8.30;99.90;;;;;;5135605;27;20206;-62
2024/03/11 06:48:36;;;;;;;28.00;19.38;;;8.30;99.90;;;;;;5135880;27;20195;-62
2024/03/11 06:51:04;;;;;;;25.27;17.77;;;8.30;99.90;;;;;;5135896;27;20246;-61
2024/03/11 06:53:31;;;;;;;23.25;17.60;;;8.30;99.90;;;;;;5136435;27;20219;-61
2024/03/11 06:56:00;;;;;;;27.55;18.80;;;8.40;99.90;;;;;;5136767;27;20202;-63
2024/03/11 06:58:27;;;;;;;29.98;20.55;;;8.40;99.90;;;;;;5135310;27;20264;-62
2024/03/11 07:00:53;;;;;;;27.25;19.00;;;8.40;99.90;;;;;;5134875;27;20210;-62
2024/03/11 07:03:23;;;;;;;23.38;17.13;;;8.40;99.90;;;;;;5135083;27;20205;-61
2024/03/11 07:05:51;;;;;;;25.70;17.70;;;8.40;99.90;;;;;;5134892;27;20199;-60
2024/03/11 07:08:18;;;;;;;28.45;17.85;;;8.40;99.90;;;;;;5136618;27;20203;-60
2024/03/11 07:10:44;;;;;;;24.50;17.27;;;8.50;99.90;;;;;;5134851;27;20213;-62
2024/03/11 07:13:11;;;;;;;26.70;18.45;;;8.50;99.90;;;;;;5134255;27;20222;-61
2024/03/11 07:15:38;;;;;;;24.48;17.60;;;8.50;99.90;;;;;;5135093;27;20199;-61
2024/03/11 07:18:08;;;;;;;25.67;18.00;;;8.60;99.90;;;;;;5134807;27;20199;-61
2024/03/11 07:20:36;;;;;;;26.48;18.38;;;8.60;99.90;;;;;;5134872;27;20199;-61
2024/03/11 07:23:04;;;;;;;24.75;17.52;;;8.60;99.90;;;;;;5134531;27;20215;-62
2024/03/11 07:25:34;;;;;;;25.67;18.35;;;8.60;99.90;;;;;;5135392;27;20203;-63
2024/03/11 07:28:01;;;;;;;30.07;19.47;;;8.70;99.90;;;;;;5134227;27;20260;-62
2024/03/11 07:30:29;;;;;;;28.00;18.07;;;8.70;99.90;;;;;;5134751;27;20447;-62
2024/03/11 07:33:06;;;;;;;29.45;19.98;;;8.70;99.90;;;;;;5134193;27;20501;-62
2024/03/11 07:35:34;;;;;;;26.45;18.13;;;8.70;99.90;;;;;;5134440;27;20230;-62
2024/03/11 07:38:00;;;;;;;21.45;17.00;;;8.70;99.90;;;;;;5135448;27;20206;-61
2024/03/11 07:40:28;;;;;;;31.83;18.50;;;8.80;99.90;;;;;;5133631;27;20207;-62
2024/03/11 07:42:57;;;;;;;27.02;18.60;;;8.80;99.90;;;;;;5134061;27;20456;-62
2024/03/11 07:45:24;;;;;;;24.63;16.95;;;8.80;99.90;;;;;;5134836;27;20250;-62
2024/03/11 07:47:53;;;;;;;23.13;17.50;;;8.90;99.90;;;;;;5135269;27;20221;-62
2024/03/11 07:50:20;;;;;;;24.73;17.63;;;8.90;99.90;;;;;;5134631;27;20242;-60
2024/03/11 07:52:47;;;;;;;24.13;16.80;;;8.90;99.90;;;;;;5134065;27;20245;-62
2024/03/11 07:55:14;;;;;;;24.90;18.45;;;9.00;99.90;;;;;;5142333;27;20441;-62
2024/03/11 07:57:42;;;;;;;26.93;17.97;;;9.00;99.90;;;;;;5148731;27;20195;-61
2024/03/11 08:00:10;;;;;;;22.90;17.33;;;9.10;99.90;;;;;;5139293;27;20441;-61
2024/03/11 08:02:37;;;;;;;29.47;20.30;;;9.10;99.90;;;;;;5133808;27;20219;-61
2024/03/11 08:05:04;;;;;;;24.83;19.60;;;9.20;99.90;;;;;;5134375;27;20444;-61
2024/03/11 08:07:32;;;;;;;23.83;18.20;;;9.30;99.90;;;;;;5134750;27;20451;-61
2024/03/11 08:10:00;;;;;;;28.13;19.57;;;9.40;99.90;;;;;;5135023;28;20437;-63
2024/03/11 08:12:27;;;;;;;25.97;19.00;;;9.40;99.90;;;;;;5134549;28;20491;-61
2024/03/11 08:14:55;;;;;;;24.67;18.47;;;9.60;99.90;;;;;;5134871;28;20447;-62
2024/03/11 08:17:22;;;;;;;25.83;17.80;;;9.70;99.90;;;;;;5134989;28;20541;-62
2024/03/11 08:19:49;;;;;;;22.30;17.17;;;9.80;99.90;;;;;;5135110;28;20437;-61
2024/03/11 08:22:16;;;;;;;27.57;18.70;;;9.80;99.90;;;;;;5135185;28;20460;-63
2024/03/11 08:24:43;;;;;;;25.90;18.53;;;9.90;99.90;;;;;;5136292;28;20476;-62
2024/03/11 08:27:09;;;;;;;26.43;19.50;;;10.00;99.90;;;;;;5134614;28;20447;-62
2024/03/11 08:29:36;;;;;;;30.50;20.40;;;10.00;99.90;;;;;;5134674;28;20788;-61
2024/03/11 08:32:06;;;;;;;28.67;20.17;;;10.00;99.90;;;;;;5135983;28;20828;-62
2024/03/11 08:34:33;;;;;;;28.90;19.57;;;10.10;99.90;;;;;;5136323;27;21001;-61
2024/03/11 08:37:00;;;;;;;29.53;20.80;;;10.10;99.90;;;;;;5134685;28;20448;-61
2024/03/11 08:39:27;;;;;;;29.77;20.03;;;10.10;99.90;;;;;;5135169;28;20437;-61
2024/03/11 08:41:53;;;;;;;29.20;20.47;;;10.20;99.90;;;;;;5135746;28;20463;-61
2024/03/11 08:44:20;;;;;;;28.50;19.50;;;10.20;99.90;;;;;;5134354;27;20436;-61
2024/03/11 08:46:47;;;;;;;24.97;19.97;;;10.20;99.90;;;;;;5134299;28;20444;-62
2024/03/11 08:49:15;;;;;;;24.77;19.87;;;10.20;99.90;;;;;;5134745;28;20444;-61
2024/03/11 08:51:42;;;;;;;28.67;21.47;;;10.10;99.90;;;;;;5134321;28;20957;-61
2024/03/11 08:54:09;;;;;;;27.87;21.30;;;10.10;99.90;;;;;;5135941;28;20483;-62
2024/03/11 08:56:36;;;;;;;27.70;19.70;;;10.10;99.90;;;;;;5135885;28;20527;-61
2024/03/11 08:59:10;;;;;;;27.53;20.53;;;10.10;99.90;;;;;;5136611;27;20447;-62
2024/03/11 09:01:40;;;;;;;26.30;21.07;;;10.20;99.90;;;;;;5137993;27;20501;-62
2024/03/11 09:04:10;;;;;;;28.83;21.37;;;10.40;99.90;;;;;;5137928;27;20441;-62
2024/03/11 09:06:41;;;;;;;29.27;21.67;;;10.60;99.90;;;;;;5138486;27;20444;-63
2024/03/11 09:09:09;;;;;;;27.40;19.77;;;10.70;99.90;;;;;;5137628;27;20482;-62
2024/03/11 09:11:37;;;;;;;26.97;20.50;;;10.90;99.90;;;;;;5138077;27;20560;-62
2024/03/11 09:14:06;;;;;;;24.57;19.00;;;11.10;99.90;;;;;;5137757;27;20574;-62
2024/03/11 09:16:33;;;;;;;30.70;21.10;;;11.30;99.90;;;;;;5137460;27;20519;-63
2024/03/11 09:19:00;;;;;;;26.10;20.07;;;11.60;99.90;;;;;;5137642;27;20927;-62
2024/03/11 09:21:27;;;;;;;25.83;20.50;;;11.90;99.90;;;;;;5137014;27;20464;-62
2024/03/11 09:23:55;;;;;;;27.17;20.43;;;12.10;99.90;;;;;;5137378;27;20437;-62
2024/03/11 09:26:23;;;;;;;26.43;22.40;;;12.40;99.90;;;;;;5136951;27;20448;-63
2024/03/11 09:28:50;;;;;;;23.60;20.47;;;12.60;99.90;;;;;;5137221;27;20450;-63
2024/03/11 09:31:17;;;;;;;26.63;20.70;;;12.70;99.90;;;;;;5137447;27;20464;-61
2024/03/11 09:33:44;;;;;;;24.03;20.43;;;12.80;99.90;;;;;;5136350;27;20480;-62
2024/03/11 09:36:10;;;;;;;24.90;18.83;;;12.90;99.90;;;;;;5137294;27;20440;-61
2024/03/11 09:38:37;;;;;;;28.63;20.80;;;12.80;99.90;;;;;;5137284;27;20493;-62
2024/03/11 09:41:14;;;;;;;29.33;22.80;;;12.70;99.90;;;;;;5136980;27;20467;-62
2024/03/11 09:43:48;;;;;;;26.50;20.07;;;12.50;99.90;;;;;;5138509;27;20420;-62
2024/03/11 09:46:20;;;;;;;25.77;20.57;;;12.40;99.90;;;;;;5137926;27;20425;-62
2024/03/11 09:48:50;;;;;;;23.67;19.77;;;12.40;99.90;;;;;;5138434;27;20425;-62
2024/03/11 09:51:21;;;;;;;22.10;18.67;;;12.50;99.90;;;;;;5144480;27;20457;-61
2024/03/11 09:53:52;;;;;;;20.83;18.63;;;12.50;99.90;;;;;;5144606;27;20464;-62
2024/03/11 09:56:20;;;;;;;22.23;19.47;;;12.40;99.90;;;;;;5140919;27;20436;-62
2024/03/11 09:58:50;;;;;;;23.10;19.33;;;12.30;99.90;;;;;;5138766;27;20448;-62
2024/03/11 10:01:23;;;;;;;23.00;18.57;;;12.50;99.90;;;;;;5137559;27;20582;-62
2024/03/11 10:03:50;;;;;;;20.40;17.53;;;12.60;99.90;;;;;;5137583;27;20425;-62
2024/03/11 10:06:19;;;;;;;21.10;18.10;;;12.80;99.90;;;;;;5136892;27;20489;-61
2024/03/11 10:08:49;;;;;;;19.80;16.30;;;13.00;99.90;;;;;;5151968;27;20518;-62
2024/03/11 10:11:20;;;;;;;20.83;17.50;;;13.10;99.90;;;;;;5149236;27;20484;-61
2024/03/11 10:13:52;;;;;;;16.60;14.67;;;13.30;99.90;;;;;;5143776;27;20510;-60
2024/03/11 10:16:21;;;;;;;25.33;17.50;;;13.50;99.90;;;;;;5143714;27;20425;-62
2024/03/11 10:19:00;;;;;;;21.37;15.20;;;13.60;99.90;;;;;;5144708;27;20437;-62
2024/03/11 10:21:28;;;;;;;14.97;12.17;;;13.50;99.90;;;;;;5143044;27;20916;-62
2024/03/11 10:23:58;;;;;;;12.23;10.70;;;13.30;99.40;;;;;;5143678;27;20448;-61
2024/03/11 10:26:30;;;;;;;11.03;9.93;;;13.00;99.80;;;;;;5143568;27;20519;-62
2024/03/11 10:28:58;;;;;;;9.50;7.60;;;12.80;99.90;;;;;;5144589;27;20426;-59
2024/03/11 10:31:27;;;;;;;11.47;8.50;;;12.60;99.90;;;;;;5144289;27;20459;-61
2024/03/11 10:34:04;;;;;;;11.50;8.97;;;12.50;99.90;;;;;;5145777;27;20485;-61
2024/03/11 10:36:31;;;;;;;11.00;9.00;;;12.50;99.90;;;;;;5146774;27;20427;-61
2024/03/11 10:39:07;;;;;;;8.63;7.27;;;12.60;99.90;;;;;;5145395;27;20436;-60
2024/03/11 10:41:34;;;;;;;8.43;7.57;;;12.70;99.90;;;;;;5142827;27;20769;-61
2024/03/11 10:44:13;;;;;;;7.80;6.50;;;12.90;99.70;;;;;;5139405;27;20504;-62
2024/03/11 10:46:41;;;;;;;9.37;7.23;;;13.10;99.20;;;;;;5137388;27;20895;-62
2024/03/11 10:49:12;;;;;;;7.90;7.10;;;13.30;98.60;;;;;;5136769;27;20911;-63
2024/03/11 10:51:45;;;;;;;8.50;7.03;;;13.50;97.80;;;;;;5135831;27;20552;-62
2024/03/11 10:54:16;;;;;;;8.30;6.20;;;13.70;96.70;;;;;;5135213;27;20472;-63
2024/03/11 10:56:44;;;;;;;6.70;5.50;;;13.70;95.10;;;;;;5135612;27;20489;-60
2024/03/11 10:59:15;;;;;;;5.87;5.27;;;13.60;94.90;;;;;;5135346;27;20450;-62
2024/03/11 11:01:47;;;;;;;5.50;5.00;;;13.50;94.30;;;;;;5135997;27;20970;-61
2024/03/11 11:04:19;;;;;;;7.17;5.13;;;13.30;94.40;;;;;;5137074;27;20857;-63
2024/03/11 11:06:47;;;;;;;6.63;5.00;;;13.20;94.60;;;;;;5137384;27;20421;-62
2024/03/11 11:09:14;;;;;;;5.37;4.83;;;13.20;94.60;;;;;;5137397;27;20483;-62
2024/03/11 11:11:49;;;;;;;4.60;3.80;;;13.10;94.50;;;;;;5137832;27;20524;-62
2024/03/11 11:14:18;;;;;;;4.10;3.60;;;12.90;93.80;;;;;;5136790;27;20467;-61
2024/03/11 11:16:45;;;;;;;4.13;3.73;;;12.70;94.00;;;;;;5137854;27;20507;-61
2024/03/11 11:19:17;;;;;;;4.83;3.00;;;12.60;94.40;;;;;;5139019;27;20444;-61
2024/03/11 11:21:44;;;;;;;2.73;2.50;;;12.60;94.40;;;;;;5137348;27;20460;-61
2024/03/11 11:24:26;;;;;;;2.63;2.40;;;12.60;93.90;;;;;;5137000;27;20435;-60
2024/03/11 11:26:55;;;;;;;3.00;1.73;;;12.60;93.40;;;;;;5136572;27;20516;-61
2024/03/11 11:29:25;;;;;;;2.20;1.80;;;12.70;92.60;;;;;;5135368;27;20470;-61
2024/03/11 11:32:02;;;;;;;1.87;1.20;;;12.70;91.40;;;;;;5136137;27;20510;-61
2024/03/11 11:34:47;;;;;;;5.57;1.87;;;12.60;91.00;;;;;;5136876;27;20486;-61
2024/03/11 11:37:32;;;;;;;1.37;1.27;;;12.60;90.30;;;;;;5136730;27;20425;-60
2024/03/11 11:39:59;;;;;;;1.83;1.67;;;12.60;90.50;;;;;;5136564;27;20464;-62
2024/03/11 11:42:36;;;;;;;1.73;1.43;;;12.70;89.80;;;;;;5136538;27;20544;-61
2024/03/11 11:45:11;;;;;;;1.63;1.50;;;12.70;88.80;;;;;;5137769;27;20485;-59
2024/03/11 11:47:38;;;;;;;1.57;1.40;;;12.70;89.20;;;;;;5138081;27;20864;-60
2024/03/11 11:50:31;;;;;;;1.70;1.50;;;12.90;88.60;;;;;;5139387;27;20440;-60
2024/03/11 11:52:58;;;;;;;1.70;1.60;;;13.00;87.70;;;;;;5141913;27;20459;-62
2024/03/11 11:55:26;;;;;;;1.77;1.60;;;13.10;86.80;;;;;;5141353;27;20890;-61
2024/03/11 11:58:02;;;;;;;1.90;1.60;;;13.20;85.40;;;;;;5143490;27;20448;-61
2024/03/11 12:00:32;;;;;;;1.37;1.27;;;13.30;84.40;;;;;;5143239;27;20416;-59
2024/03/11 12:02:59;;;;;;;1.60;1.40;;;13.30;84.10;;;;;;5136584;27;20468;-61
2024/03/11 12:05:25;;;;;;;1.30;1.20;;;13.50;83.50;;;;;;5136019;27;20443;-61
2024/03/11 12:07:54;;;;;;;2.30;1.47;;;13.50;82.60;;;;;;5136431;27;20441;-63
2024/03/11 12:10:21;;;;;;;2.53;1.10;;;13.60;81.70;;;;;;5136636;27;20440;-62
2024/03/11 12:12:49;;;;;;;1.77;1.50;;;13.60;81.10;;;;;;5135777;28;20566;-60
2024/03/11 12:15:17;;;;;;;1.17;1.07;;;13.50;80.50;;;;;;5142932;28;20476;-61
2024/03/11 12:17:49;;;;;;;1.00;0.90;;;13.40;80.50;;;;;;5147422;27;20505;-61
2024/03/11 12:20:18;;;;;;;1.17;1.07;;;13.30;80.60;;;;;;5142481;28;20425;-59
2024/03/11 12:22:47;;;;;;;1.40;1.20;;;13.30;80.70;;;;;;5136507;28;20537;-61
2024/03/11 12:25:15;;;;;;;1.30;1.20;;;13.30;80.60;;;;;;5136780;28;20444;-61
2024/03/11 12:27:43;;;;;;;1.30;1.10;;;13.30;80.40;;;;;;5137192;28;20537;-62
2024/03/11 12:30:18;;;;;;;1.37;1.23;;;13.30;80.20;;;;;;5137572;28;20451;-61
2024/03/11 12:32:45;;;;;;;1.67;1.10;;;13.30;79.80;;;;;;5137811;27;20921;-61
2024/03/11 12:35:15;;;;;;;1.30;1.00;;;13.20;79.50;;;;;;5145043;27;20472;-61
2024/03/11 12:37:43;;;;;;;1.83;1.10;;;13.20;79.40;;;;;;5146608;27;20445;-61
2024/03/11 12:40:18;;;;;;;1.87;1.00;;;13.10;80.10;;;;;;5146412;27;20444;-61
2024/03/11 12:42:46;;;;;;;2.27;1.10;;;13.00;79.70;;;;;;5144147;27;20508;-61
2024/03/11 12:45:15;;;;;;;1.20;1.00;;;12.90;79.70;;;;;;5142594;27;20424;-61